Time;durP1;ratioP1;P1;durP2;ratioP2;P2;SDS_P1;SDS_P2;PMS_P1;PMS_P2;Temp;Humidity;BMP_temperature;BMP_pressure;BME280_temperature;BME280_humidity;BME280_pressure;Samples;Min_cycle;Max_cycle;Signal;HPM_P1;HPM_P2
2022/02/07 00:01:44;;;;;;;14.43;2.28;;;;;;;8.69;59.79;100895.94;4979886;28;20022;-84
2022/02/07 00:04:14;;;;;;;15.07;2.83;;;;;;;8.62;59.75;100898.97;4980665;28;20031;-85
2022/02/07 00:06:39;;;;;;;14.77;2.88;;;;;;;8.65;59.49;100920.59;4982006;28;20030;-85
2022/02/07 00:09:04;;;;;;;18.60;2.95;;;;;;;8.57;59.83;100938.47;4982909;28;20051;-85
2022/02/07 00:11:30;;;;;;;16.95;2.95;;;;;;;8.55;60.65;100942.94;4983419;28;20320;-85
2022/02/07 00:13:55;;;;;;;17.65;4.85;;;;;;;8.48;60.77;100960.69;4982515;28;20037;-85
2022/02/07 00:16:21;;;;;;;11.57;2.58;;;;;;;8.50;61.17;100971.94;4965747;28;20413;-85
2022/02/07 00:18:47;;;;;;;15.90;2.55;;;;;;;8.45;61.13;100971.34;4959487;28;20059;-85
2022/02/07 00:21:13;;;;;;;13.13;2.78;;;;;;;8.43;61.49;100974.94;4961828;28;20027;-85
2022/02/07 00:23:38;;;;;;;18.63;2.70;;;;;;;8.34;61.84;100965.75;4964206;28;20031;-85
2022/02/07 00:26:03;;;;;;;16.10;2.22;;;;;;;8.38;61.45;100969.06;4963319;28;20030;-86
2022/02/07 00:28:29;;;;;;;15.95;3.17;;;;;;;8.33;61.53;100980.63;4955778;28;20389;-85
2022/02/07 00:30:54;;;;;;;14.23;2.53;;;;;;;8.23;62.06;100996.81;4968472;28;20070;-85
2022/02/07 00:33:20;;;;;;;12.25;2.42;;;;;;;8.18;62.21;101010.13;4974868;28;20084;-85
2022/02/07 00:35:45;;;;;;;10.10;1.73;;;;;;;8.16;62.70;101032.06;4974660;28;20157;-85
2022/02/07 00:38:16;;;;;;;11.85;2.08;;;;;;;8.10;62.37;101030.59;4974571;28;20027;-85
2022/02/07 00:40:46;;;;;;;9.00;1.95;;;;;;;8.00;62.29;101024.94;4974382;28;20033;-85
2022/02/07 00:45:57;;;;;;;22.65;3.42;;;;;;;7.89;63.19;101020.19;4959630;28;20046;-85
2022/02/07 00:48:24;;;;;;;13.88;3.08;;;;;;;7.87;63.65;101019.41;4954817;28;20028;-85
2022/02/07 00:50:51;;;;;;;9.90;3.50;;;;;;;7.86;63.59;101019.50;4954756;28;20027;-85
2022/02/07 00:53:17;;;;;;;16.95;3.38;;;;;;;7.88;63.91;101015.91;4954922;28;20032;-86
2022/02/07 00:55:42;;;;;;;18.90;3.20;;;;;;;7.86;64.00;101007.28;4954969;28;20031;-85
2022/02/07 00:58:08;;;;;;;25.27;3.50;;;;;;;7.85;64.52;101013.41;4954944;28;20473;-86
2022/02/07 01:00:34;;;;;;;19.65;2.85;;;;;;;7.99;64.94;101030.22;4969151;28;20400;-86
2022/02/07 01:03:00;;;;;;;12.75;2.28;;;;;;;8.07;63.98;101039.41;4974017;28;20023;-86
2022/02/07 01:05:26;;;;;;;12.68;2.38;;;;;;;8.08;64.05;101051.56;4973722;28;20034;-86
2022/02/07 01:07:52;;;;;;;15.23;2.65;;;;;;;8.07;64.22;101055.09;4973781;28;20106;-85
2022/02/07 01:10:25;;;;;;;20.95;3.67;;;;;;;8.16;63.80;101069.53;4974191;28;20465;-86
2022/02/07 01:15:36;;;;;;;15.93;2.70;;;;;;;8.03;64.45;101073.63;4957715;28;20168;-85
2022/02/07 01:50:47;;;;;;;12.82;2.85;;;;;;;7.60;65.52;101143.53;4954271;28;20193;-85
2022/02/07 01:55:55;;;;;;;15.38;3.03;;;;;;;7.44;65.25;101165.09;4954233;28;20561;-86
2022/02/07 01:58:22;;;;;;;13.90;2.30;;;;;;;7.34;65.47;101164.63;4953914;28;20046;-85
2022/02/07 02:00:48;;;;;;;14.60;3.25;;;;;;;7.27;65.70;101157.16;4971195;28;20022;-85
2022/02/07 02:03:14;;;;;;;17.05;2.60;;;;;;;7.31;65.71;101169.16;4973430;28;20027;-85
2022/02/07 02:05:39;;;;;;;13.82;2.83;;;;;;;7.33;66.75;101157.72;4973442;28;20035;-85
2022/02/07 02:08:07;;;;;;;23.13;4.65;;;;;;;7.45;66.62;101165.97;4973118;28;20113;-85
2022/02/07 02:10:34;;;;;;;13.50;2.72;;;;;;;7.48;67.45;101171.03;4973369;28;20015;-85
2022/02/07 02:13:09;;;;;;;24.48;4.03;;;;;;;7.54;66.84;101174.25;4973030;28;20027;-86
2022/02/07 02:37:20;;;;;;;23.38;4.25;;;;;;;7.79;66.49;101229.84;4953575;28;20086;-86
2022/02/07 02:48:17;;;;;;;18.15;3.05;;;;;;;7.75;66.23;101252.66;4974559;28;20043;-86
2022/02/07 02:50:44;;;;;;;16.35;2.92;;;;;;;7.68;65.95;101261.66;4976380;28;20033;-85
2022/02/07 02:53:14;;;;;;;16.10;3.05;;;;;;;7.65;66.03;101267.88;4976195;28;20031;-85
2022/02/07 02:55:42;;;;;;;12.48;3.08;;;;;;;7.62;65.33;101269.78;4976056;28;20027;-85
2022/02/07 02:58:10;;;;;;;15.23;2.85;;;;;;;7.48;65.82;101279.03;4976135;28;20031;-86
2022/02/07 03:00:37;;;;;;;14.13;2.55;;;;;;;7.43;65.97;101277.53;4960716;28;20041;-85
2022/02/07 03:03:02;;;;;;;19.60;2.83;;;;;;;7.40;65.93;101267.19;4956713;28;20019;-85
2022/02/07 03:05:28;;;;;;;20.55;3.20;;;;;;;7.39;65.53;101279.41;4956447;28;20031;-86
2022/02/07 03:07:54;;;;;;;23.08;3.78;;;;;;;7.34;65.91;101273.53;4956663;28;20106;-85
2022/02/07 03:10:26;;;;;;;16.95;2.85;;;;;;;7.33;65.63;101287.50;4956387;28;20023;-85
2022/02/07 03:18:08;;;;;;;18.50;3.67;;;;;;;7.22;65.70;101292.31;4956336;28;20054;-85
2022/02/07 03:20:34;;;;;;;20.15;3.35;;;;;;;7.20;66.10;101292.34;4956277;28;20462;-85
2022/02/07 03:22:59;;;;;;;11.43;2.25;;;;;;;7.37;66.03;101299.53;4956255;28;20058;-84
2022/02/07 03:25:24;;;;;;;17.38;2.58;;;;;;;7.57;65.02;101300.50;4956295;28;20519;-85
2022/02/07 03:27:50;;;;;;;10.15;2.88;;;;;;;7.53;65.47;101295.38;4956094;28;20077;-85
2022/02/07 03:30:15;;;;;;;13.88;2.60;;;;;;;7.09;66.73;101300.63;4957775;28;20422;-84
2022/02/07 03:32:40;;;;;;;12.02;3.08;;;;;;;7.07;66.21;101317.25;4955856;28;20031;-85
2022/02/07 03:35:07;;;;;;;14.52;2.55;;;;;;;7.32;65.65;101314.53;4955978;28;20038;-85
2022/02/07 03:37:33;;;;;;;13.55;2.70;;;;;;;7.31;64.92;101325.91;4954712;28;20035;-85
2022/02/07 03:39:58;;;;;;;12.93;4.47;;;;;;;7.30;65.52;101332.03;4955829;28;20035;-85
2022/02/07 03:42:23;;;;;;;13.48;2.63;;;;;;;7.32;65.16;101330.22;4955950;28;20106;-85
2022/02/07 03:44:49;;;;;;;14.15;3.75;;;;;;;7.34;65.67;101321.38;4956963;28;20031;-85
2022/02/07 03:47:14;;;;;;;15.48;3.17;;;;;;;7.31;65.89;101313.69;4955781;28;20597;-85
2022/02/07 03:49:39;;;;;;;10.82;2.40;;;;;;;7.02;66.36;101316.59;4959806;28;20290;-85
2022/02/07 03:52:08;;;;;;;15.57;2.53;;;;;;;7.22;65.53;101308.81;4973901;28;20034;-85
2022/02/07 03:54:34;;;;;;;15.00;2.97;;;;;;;7.25;65.29;101320.94;4974612;28;20033;-85
2022/02/07 03:56:59;;;;;;;9.30;2.45;;;;;;;6.91;66.42;101343.09;4974920;28;20035;-85
2022/02/07 03:59:25;;;;;;;10.93;2.78;;;;;;;6.79;66.88;101354.00;4973020;28;20393;-85
2022/02/07 04:01:50;;;;;;;16.63;3.55;;;;;;;6.72;67.46;101341.19;4974925;28;20023;-84
2022/02/07 04:04:16;;;;;;;19.33;2.88;;;;;;;6.76;67.68;101354.97;4974647;28;20054;-85
2022/02/07 04:06:42;;;;;;;14.40;2.97;;;;;;;6.77;67.46;101354.06;4974566;28;20027;-85
2022/02/07 04:09:10;;;;;;;15.15;2.42;;;;;;;6.74;67.55;101352.41;4973345;28;20023;-84
2022/02/07 04:11:42;;;;;;;16.58;3.08;;;;;;;6.75;67.79;101343.69;4974639;28;20366;-84
2022/02/07 04:14:08;;;;;;;20.95;2.80;;;;;;;6.76;67.24;101339.31;4969343;28;20031;-85
2022/02/07 04:16:38;;;;;;;18.05;3.10;;;;;;;6.79;67.56;101356.59;4974320;28;20113;-85
2022/02/07 04:19:17;;;;;;;14.57;3.00;;;;;;;6.75;67.55;101364.56;4974379;28;20023;-85
2022/02/07 04:21:45;;;;;;;20.83;2.97;;;;;;;6.72;67.05;101369.03;4974277;28;20026;-85
2022/02/07 04:24:11;;;;;;;15.77;3.03;;;;;;;6.69;66.66;101374.38;4974302;28;20169;-85
2022/02/07 04:26:36;;;;;;;15.85;3.25;;;;;;;6.62;67.31;101363.31;4974252;28;20109;-85
2022/02/07 04:29:02;;;;;;;16.58;2.53;;;;;;;6.57;66.64;101352.16;4959962;28;20031;-85
2022/02/07 04:31:28;;;;;;;16.52;3.20;;;;;;;6.53;67.80;101353.19;4958472;28;20466;-85
2022/02/07 04:33:53;;;;;;;17.02;3.42;;;;;;;6.59;67.90;101355.56;4967656;28;20038;-86
2022/02/07 04:36:19;;;;;;;19.35;4.35;;;;;;;6.59;67.71;101363.41;4974217;28;20247;-85
2022/02/07 04:38:44;;;;;;;14.85;2.88;;;;;;;6.65;68.36;101373.63;4973054;28;20033;-85
2022/02/07 04:41:10;;;;;;;25.90;4.18;;;;;;;6.51;67.02;101378.50;4954468;28;20038;-85
2022/02/07 04:43:39;;;;;;;15.32;3.20;;;;;;;6.48;67.25;101386.44;4958879;28;20365;-85
2022/02/07 05:03:53;;;;;;;;;;;;;;;6.37;67.87;101380.75;4962927;28;20085;-86
2022/02/07 05:14:33;;;;;;;18.25;2.95;;;;;;;6.37;67.89;101365.94;4971995;28;20500;-86
2022/02/07 05:16:59;;;;;;;19.05;3.15;;;;;;;6.37;67.82;101373.75;4953707;28;20031;-85
2022/02/07 05:19:25;;;;;;;12.90;2.38;;;;;;;6.34;68.36;101366.91;4954026;28;20477;-85
2022/02/07 05:21:51;;;;;;;10.40;2.08;;;;;;;6.34;67.90;101353.00;4970566;28;20050;-85
2022/02/07 05:24:16;;;;;;;12.98;2.47;;;;;;;6.35;68.35;101358.16;4973258;28;20042;-86
2022/02/07 05:26:42;;;;;;;13.98;2.97;;;;;;;6.39;68.49;101355.44;4972954;28;20027;-85
2022/02/07 05:29:07;;;;;;;14.48;2.90;;;;;;;6.44;68.39;101363.97;4970965;28;20030;-85
2022/02/07 05:31:33;;;;;;;19.05;3.05;;;;;;;6.52;68.56;101372.38;4962612;28;20046;-85
2022/02/07 05:33:59;;;;;;;20.35;2.95;;;;;;;6.57;68.32;101387.84;4953824;28;20027;-85
2022/02/07 05:36:25;;;;;;;11.73;1.98;;;;;;;6.59;67.87;101386.88;4971484;28;20676;-86
2022/02/07 05:38:54;;;;;;;11.68;2.15;;;;;;;6.57;67.99;101399.13;4973303;28;20054;-84
2022/02/07 05:41:19;;;;;;;16.35;2.88;;;;;;;6.59;67.98;101389.50;4956634;28;20432;-84
2022/02/07 05:43:47;;;;;;;9.82;2.38;;;;;;;6.60;67.89;101393.81;4953767;28;20113;-85
2022/02/07 05:46:13;;;;;;;18.15;2.83;;;;;;;6.59;67.98;101404.31;4954987;28;20493;-85
2022/02/07 05:48:39;;;;;;;15.15;2.22;;;;;;;6.66;67.97;101422.31;4958248;28;20041;-85
2022/02/07 05:51:05;;;;;;;15.63;2.10;;;;;;;6.63;67.62;101427.63;4973101;28;20023;-85
2022/02/07 05:53:30;;;;;;;11.70;2.33;;;;;;;6.67;68.37;101438.81;4972318;28;20045;-86
2022/02/07 05:55:55;;;;;;;13.88;2.80;;;;;;;6.72;68.57;101442.13;4973467;28;20105;-86
2022/02/07 05:58:21;;;;;;;12.50;2.60;;;;;;;6.76;68.29;101438.50;4970377;28;20022;-85
2022/02/07 06:00:47;;;;;;;12.57;3.20;;;;;;;6.82;68.41;101442.66;4956801;28;20031;-85
2022/02/07 06:03:12;;;;;;;14.80;2.72;;;;;;;6.85;67.70;101450.34;4954350;28;20024;-85
2022/02/07 06:05:38;;;;;;;17.17;2.28;;;;;;;6.82;67.62;101461.78;4972596;28;20404;-85
2022/02/07 06:08:04;;;;;;;11.27;2.13;;;;;;;6.78;67.59;101477.59;4958214;28;20023;-84
2022/02/07 06:10:29;;;;;;;8.52;2.05;;;;;;;6.75;67.34;101483.75;4960975;28;20473;-84
2022/02/07 06:12:54;;;;;;;26.95;3.75;;;;;;;6.75;67.49;101491.59;4972887;28;20026;-85
2022/02/07 06:15:20;;;;;;;17.73;2.78;;;;;;;6.69;67.81;101490.03;4965257;28;20661;-84
2022/02/07 06:17:53;;;;;;;15.57;2.60;;;;;;;6.69;67.67;101495.25;4963095;28;20031;-84
2022/02/07 06:20:18;;;;;;;9.85;2.42;;;;;;;6.69;67.43;101500.47;4953658;28;20041;-85
2022/02/07 06:22:45;;;;;;;9.45;2.50;;;;;;;6.63;67.40;101505.06;4955555;28;20366;-85
2022/02/07 06:25:11;;;;;;;11.77;1.80;;;;;;;6.55;67.23;101518.38;4960527;28;20027;-85
2022/02/07 06:27:36;;;;;;;9.30;1.83;;;;;;;6.48;67.57;101512.53;4976549;28;20030;-85
2022/02/07 06:30:03;;;;;;;15.02;2.92;;;;;;;6.42;67.19;101522.28;4965298;28;20039;-85
2022/02/07 06:32:28;;;;;;;16.45;2.70;;;;;;;6.40;67.28;101521.47;4976110;28;20027;-84
2022/02/07 06:34:54;;;;;;;17.60;2.78;;;;;;;6.38;66.88;101523.28;4976037;28;20037;-84
2022/02/07 06:37:19;;;;;;;19.30;3.22;;;;;;;6.30;67.35;101513.09;4957672;28;20085;-84
2022/02/07 06:39:44;;;;;;;15.25;2.63;;;;;;;6.27;67.58;101514.06;4963029;28;20162;-85
2022/02/07 06:42:10;;;;;;;14.38;2.65;;;;;;;6.24;67.40;101521.13;4973476;28;20031;-84
2022/02/07 06:44:35;;;;;;;12.90;3.33;;;;;;;6.23;68.05;101522.03;4975599;28;20109;-83
2022/02/07 06:47:01;;;;;;;19.58;3.13;;;;;;;6.23;67.79;101522.88;4974672;28;20038;-85
2022/02/07 06:49:26;;;;;;;13.20;2.85;;;;;;;6.17;67.78;101528.31;4975608;28;20029;-85
2022/02/07 06:51:51;;;;;;;19.65;3.35;;;;;;;6.18;68.04;101537.84;4974899;28;20385;-85
2022/02/07 06:54:17;;;;;;;24.50;3.35;;;;;;;6.13;68.20;101537.97;4974035;28;20511;-84
2022/02/07 06:56:44;;;;;;;18.33;2.88;;;;;;;6.13;68.53;101540.56;4974314;28;20445;-85
2022/02/07 06:59:10;;;;;;;18.63;2.80;;;;;;;6.02;68.50;101520.94;4969118;28;20035;-85
2022/02/07 07:01:36;;;;;;;13.90;3.17;;;;;;;6.15;67.97;101558.78;4975328;28;20076;-85
2022/02/07 07:04:01;;;;;;;14.85;2.33;;;;;;;6.05;67.94;101565.19;4972553;28;20038;-85
2022/02/07 07:06:26;;;;;;;15.80;2.42;;;;;;;6.08;68.16;101565.09;4974938;28;20019;-84
2022/02/07 07:08:54;;;;;;;16.45;2.75;;;;;;;6.01;67.96;101563.59;4969361;28;20102;-88
2022/02/07 07:11:24;;;;;;;15.73;2.70;;;;;;;6.05;67.74;101571.25;4973613;28;20477;-87
2022/02/07 07:13:57;;;;;;;11.90;2.45;;;;;;;6.03;67.77;101573.06;4975587;28;20042;-88
2022/02/07 07:18:47;;;;;;;20.48;2.80;;;;;;;5.97;68.25;101577.63;4975718;28;20089;-88
2022/02/07 07:21:13;;;;;;;17.23;2.80;;;;;;;6.01;68.16;101574.00;4974868;28;20023;-87
2022/02/07 07:23:39;;;;;;;19.25;3.97;;;;;;;5.95;68.50;101577.66;4970325;28;20050;-87
2022/02/07 07:26:06;;;;;;;8.95;2.28;;;;;;;5.90;68.52;101582.94;4962257;28;20089;-88
2022/02/07 07:28:31;;;;;;;19.25;2.97;;;;;;;5.94;68.59;101583.72;4962864;28;20041;-88
2022/02/07 07:30:58;;;;;;;24.70;3.63;;;;;;;6.03;68.76;101588.69;4969553;28;20038;-87
2022/02/07 07:33:26;;;;;;;11.48;2.28;;;;;;;5.98;68.79;101587.13;4970842;28;20025;-86
2022/02/07 07:35:51;;;;;;;15.18;2.75;;;;;;;5.98;68.92;101593.19;4974113;28;20039;-87
2022/02/07 07:38:17;;;;;;;12.65;2.40;;;;;;;6.04;68.51;101605.19;4969008;28;20029;-87
2022/02/07 07:40:44;;;;;;;21.00;3.42;;;;;;;6.04;68.37;101608.69;4973539;28;20027;-86
2022/02/07 07:43:10;;;;;;;18.88;2.80;;;;;;;6.01;67.87;101606.16;4974312;28;20495;-86
2022/02/07 07:45:43;;;;;;;18.02;2.50;;;;;;;6.01;68.13;101611.34;4968171;28;20441;-89
2022/02/07 07:48:12;;;;;;;11.23;3.15;;;;;;;5.88;68.19;101597.78;4969088;28;20026;-87
2022/02/07 08:03:42;;;;;;;12.65;2.53;;;;;;;6.34;67.91;101632.97;4954870;28;20179;-84
2022/02/07 08:06:21;;;;;;;15.02;3.08;;;;;;;6.33;67.61;101633.84;4963350;28;20031;-84
2022/02/07 08:11:14;;;;;;;14.20;2.65;;;;;;;6.28;67.84;101637.50;4962154;28;20019;-86
2022/02/07 08:13:42;;;;;;;19.23;3.50;;;;;;;6.30;67.63;101638.31;4964748;28;20034;-87
2022/02/07 08:16:08;;;;;;;11.77;2.00;;;;;;;6.39;67.83;101640.63;4955067;28;20078;-86
2022/02/07 08:18:33;;;;;;;13.75;2.78;;;;;;;6.43;67.95;101628.38;4967037;28;20493;-84
2022/02/07 08:20:59;;;;;;;13.52;2.78;;;;;;;6.56;68.19;101634.91;4955211;28;20039;-84
2022/02/07 08:23:24;;;;;;;15.18;3.38;;;;;;;6.79;67.54;101641.13;4955381;28;20031;-85
2022/02/07 08:25:52;;;;;;;10.02;2.45;;;;;;;7.02;67.88;101664.75;4955703;28;20027;-84
2022/02/07 08:28:18;;;;;;;10.95;2.15;;;;;;;7.42;68.26;101666.00;4967686;28;20019;-85
2022/02/07 08:30:43;;;;;;;11.32;2.55;;;;;;;7.95;66.71;101665.00;4966463;28;20034;-87
2022/02/07 08:33:08;;;;;;;13.02;3.22;;;;;;;8.47;66.38;101654.34;4987295;28;20400;-86
2022/02/07 08:35:34;;;;;;;12.98;2.53;;;;;;;8.97;65.31;101653.25;4993363;28;20030;-85
2022/02/07 08:37:59;;;;;;;13.88;2.75;;;;;;;9.20;64.02;101665.38;4988353;28;20034;-85
2022/02/07 08:40:29;;;;;;;10.98;2.40;;;;;;;9.13;63.52;101668.25;4975267;28;20031;-86
2022/02/07 08:42:55;;;;;;;15.02;4.07;;;;;;;9.07;63.81;101668.50;4986479;28;20031;-86
2022/02/07 08:45:22;;;;;;;11.27;2.30;;;;;;;9.10;63.20;101685.88;4990849;28;20481;-85
2022/02/07 08:47:48;;;;;;;12.82;3.20;;;;;;;9.06;63.29;101695.66;4989547;28;20536;-85
2022/02/07 08:50:13;;;;;;;11.45;3.00;;;;;;;9.10;63.60;101701.59;4989317;28;20026;-86
2022/02/07 08:52:44;;;;;;;11.05;3.00;;;;;;;9.13;63.87;101702.31;4970230;28;20030;-85
2022/02/07 08:55:15;;;;;;;14.48;3.63;;;;;;;9.19;64.10;101697.75;4965668;28;20054;-85
2022/02/07 08:57:44;;;;;;;14.27;3.07;;;;;;;9.29;64.08;101699.06;4969716;28;20031;-86
2022/02/07 09:00:22;;;;;;;17.58;3.58;;;;;;;9.49;63.88;101693.81;4965332;28;20269;-85
2022/02/07 09:08:06;;;;;;;12.50;2.47;;;;;;;9.75;63.88;101704.97;4979404;28;20034;-85
2022/02/07 09:10:31;;;;;;;14.63;2.85;;;;;;;10.04;63.33;101710.69;4983550;28;20035;-85
2022/02/07 09:12:57;;;;;;;14.93;2.90;;;;;;;10.36;63.56;101705.78;4965227;28;20449;-85
2022/02/07 09:15:42;;;;;;;15.90;3.83;;;;;;;10.67;63.00;101708.66;4964761;28;20023;-85
2022/02/07 09:18:10;;;;;;;12.98;2.92;;;;;;;11.21;62.44;101710.47;4980957;28;20027;-85
2022/02/07 09:20:37;;;;;;;17.20;3.70;;;;;;;11.67;62.27;101706.38;4980983;28;20035;-86
2022/02/07 09:23:04;;;;;;;17.02;3.88;;;;;;;12.19;60.94;101713.31;4960186;28;20118;-85
2022/02/07 09:25:30;;;;;;;17.33;4.22;;;;;;;12.59;59.77;101719.03;4958976;28;20031;-85
2022/02/07 09:27:56;;;;;;;16.80;4.47;;;;;;;12.74;59.15;101719.97;4966229;28;20042;-86
2022/02/07 09:30:22;;;;;;;14.88;4.25;;;;;;;12.86;58.29;101724.53;4954602;28;20027;-86
2022/02/07 09:32:48;;;;;;;20.83;4.45;;;;;;;12.73;58.05;101723.53;4970599;28;20109;-85
2022/02/07 09:35:14;;;;;;;23.45;4.95;;;;;;;12.72;57.54;101720.97;4974005;28;20109;-84
2022/02/07 09:37:40;;;;;;;24.73;5.90;;;;;;;12.81;57.46;101718.66;4958213;28;20075;-84
2022/02/07 09:40:07;;;;;;;17.50;3.88;;;;;;;12.76;56.83;101704.09;4953182;28;20521;-84
2022/02/07 09:42:34;;;;;;;24.75;4.95;;;;;;;12.70;57.52;101716.66;4966548;28;20034;-84
2022/02/07 09:45:09;;;;;;;15.38;3.70;;;;;;;12.63;57.22;101711.81;4973986;28;20082;-84
2022/02/07 09:47:36;;;;;;;24.48;5.80;;;;;;;12.54;56.88;101705.28;4970311;28;20027;-84
2022/02/07 09:50:01;;;;;;;24.92;4.70;;;;;;;12.49;56.93;101712.56;4972452;28;20461;-84
2022/02/07 09:52:27;;;;;;;19.23;4.97;;;;;;;12.50;56.99;101709.03;4961708;28;20129;-85
2022/02/07 09:54:52;;;;;;;15.57;3.92;;;;;;;12.51;57.50;101715.97;4958999;28;20377;-85
2022/02/07 09:57:20;;;;;;;30.95;6.38;;;;;;;12.61;57.24;101721.59;4968259;28;20035;-84
2022/02/07 09:59:48;;;;;;;16.23;4.22;;;;;;;12.69;57.00;101722.84;4977628;28;20030;-85
2022/02/07 10:02:25;;;;;;;18.92;5.32;;;;;;;12.76;57.06;101718.09;4967737;28;20034;-84
2022/02/07 10:04:51;;;;;;;22.48;5.25;;;;;;;12.84;56.41;101717.66;4975893;28;20037;-84
2022/02/07 10:07:28;;;;;;;18.65;3.67;;;;;;;12.71;57.06;101709.59;4966165;28;20027;-84
2022/02/07 10:10:18;;;;;;;24.08;4.47;;;;;;;12.83;56.28;101721.22;4964023;28;20110;-84
2022/02/07 10:13:12;;;;;;;16.77;3.88;;;;;;;12.88;56.46;101730.56;4958260;28;20027;-85
2022/02/07 10:15:56;;;;;;;21.30;4.25;;;;;;;13.07;56.46;101729.53;4972639;28;20385;-85
2022/02/07 10:18:58;;;;;;;13.07;3.50;;;;;;;13.07;56.22;101727.75;4977281;28;20439;-84
2022/02/07 10:40:43;;;;;;;25.98;3.58;;;;;;;15.08;52.47;101734.88;4977885;28;20137;-86
2022/02/07 10:46:03;;;;;;;19.58;4.10;;;;;;;16.05;50.90;101733.63;4976540;28;20555;-86
2022/02/07 10:48:53;;;;;;;18.30;3.72;;;;;;;16.05;50.58;101736.28;4964635;28;20110;-87
2022/02/07 10:51:33;;;;;;;20.70;3.63;;;;;;;15.82;50.45;101736.09;4968653;28;20058;-85
2022/02/07 10:53:59;;;;;;;19.13;3.95;;;;;;;15.88;50.87;101745.41;4975957;28;20144;-86
2022/02/07 10:56:30;;;;;;;21.92;3.85;;;;;;;15.79;50.51;101746.88;4975734;28;20038;-86
2022/02/07 10:58:57;;;;;;;20.03;3.53;;;;;;;16.03;50.91;101740.84;4975963;28;20030;-85
2022/02/07 11:01:43;;;;;;;19.40;3.85;;;;;;;16.30;49.49;101746.00;4975140;28;20038;-86
2022/02/07 11:04:13;;;;;;;17.92;4.38;;;;;;;16.88;48.92;101750.75;4974477;28;20039;-86
2022/02/07 11:06:43;;;;;;;18.52;3.95;;;;;;;16.36;48.99;101750.88;4958532;28;20367;-86
2022/02/07 11:19:42;;;;;;;23.67;4.68;;;;;;;15.43;51.60;101745.75;4957833;28;20412;-87
2022/02/07 11:27:28;;;;;;;17.20;3.58;;;;;;;14.79;52.41;101757.91;4971505;28;20094;-87
2022/02/07 11:29:54;;;;;;;20.00;3.08;;;;;;;14.58;53.15;101755.69;4973330;28;20027;-86
2022/02/07 11:32:42;;;;;;;18.92;3.85;;;;;;;14.70;52.51;101756.72;4973718;28;20050;-87
2022/02/07 11:35:10;;;;;;;19.50;5.10;;;;;;;14.34;52.37;101746.66;4973773;28;20433;-86
2022/02/07 11:37:36;;;;;;;19.85;5.00;;;;;;;14.27;53.48;101760.22;4974368;28;20031;-85
2022/02/07 11:40:32;;;;;;;25.90;4.03;;;;;;;14.39;52.83;101752.47;4957161;28;20043;-85
2022/02/07 11:43:06;;;;;;;23.45;3.85;;;;;;;14.31;52.81;101745.03;4974273;28;20114;-85
2022/02/07 11:45:53;;;;;;;27.90;5.93;;;;;;;14.32;52.26;101740.63;4970511;28;20034;-85
2022/02/07 11:48:33;;;;;;;21.40;3.72;;;;;;;14.14;53.18;101737.28;4960082;28;20028;-84
2022/02/07 11:51:02;;;;;;;25.45;4.53;;;;;;;14.27;53.21;101739.09;4973166;28;20113;-86
2022/02/07 11:53:51;;;;;;;20.50;4.25;;;;;;;14.61;52.92;101731.72;4970938;28;20026;-85
2022/02/07 11:56:26;;;;;;;23.48;3.90;;;;;;;14.58;52.19;101726.63;4979102;28;20092;-86
2022/02/07 11:58:58;;;;;;;26.98;3.95;;;;;;;14.43;52.97;101727.56;4974152;28;20497;-86
2022/02/07 12:01:58;;;;;;;13.48;3.25;;;;;;;14.80;52.58;101731.38;4974600;28;20053;-86
2022/02/07 12:04:44;;;;;;;22.70;4.15;;;;;;;14.75;52.70;101722.91;4973926;28;20073;-87
2022/02/07 12:07:16;;;;;;;15.63;3.55;;;;;;;14.97;52.67;101732.06;4974506;28;20479;-84
2022/02/07 12:12:36;;;;;;;16.30;3.22;;;;;;;14.42;53.78;101728.53;4955821;28;20045;-85
2022/02/07 12:15:31;;;;;;;12.85;3.10;;;;;;;14.55;53.58;101729.41;4956293;28;20106;-86
2022/02/07 12:17:59;;;;;;;28.83;4.63;;;;;;;14.74;52.87;101728.28;4974657;28;20061;-86
2022/02/07 12:20:30;;;;;;;22.23;3.55;;;;;;;14.59;53.19;101730.09;4973833;28;20027;-86
2022/02/07 12:23:04;;;;;;;21.60;4.63;;;;;;;14.85;53.40;101724.00;4973236;28;20050;-86
2022/02/07 12:25:30;;;;;;;21.40;3.97;;;;;;;14.75;53.17;101717.63;4964501;28;20039;-86
2022/02/07 12:28:00;;;;;;;19.63;4.18;;;;;;;14.57;54.06;101727.56;4960426;28;20477;-86
2022/02/07 12:30:42;;;;;;;19.48;3.20;;;;;;;14.74;54.46;101721.19;4964425;28;20031;-85
2022/02/07 12:33:08;;;;;;;20.65;3.08;;;;;;;14.67;54.51;101730.47;4974109;28;20026;-86
2022/02/07 12:35:34;;;;;;;16.95;3.60;;;;;;;14.66;54.28;101724.34;4973070;28;20041;-85
2022/02/07 12:37:59;;;;;;;17.38;3.05;;;;;;;14.86;54.63;101722.19;4973808;28;20037;-85
2022/02/07 12:40:25;;;;;;;17.83;2.97;;;;;;;14.86;54.23;101714.28;4973660;28;20089;-85
2022/02/07 12:42:51;;;;;;;13.05;2.67;;;;;;;14.81;54.47;101711.94;4974956;28;20158;-83
2022/02/07 12:45:17;;;;;;;22.58;4.03;;;;;;;14.84;54.64;101717.00;4974306;28;20588;-86
2022/02/07 12:47:49;;;;;;;15.88;3.33;;;;;;;14.76;54.54;101713.19;4973285;28;20473;-85
2022/02/07 12:50:15;;;;;;;21.30;4.00;;;;;;;14.52;54.89;101700.56;4971841;28;20019;-86
2022/02/07 12:52:42;;;;;;;19.88;3.40;;;;;;;14.36;56.13;101699.84;4971666;28;20031;-85
2022/02/07 12:55:11;;;;;;;17.80;3.55;;;;;;;14.36;56.29;101707.78;4969399;28;20511;-85
2022/02/07 12:57:41;;;;;;;13.38;3.20;;;;;;;14.28;57.15;101698.53;4973126;28;20038;-84
2022/02/07 13:00:09;;;;;;;13.30;2.13;;;;;;;14.39;57.16;101707.56;4971966;28;20433;-85
2022/02/07 13:02:35;;;;;;;15.05;2.50;;;;;;;14.43;57.21;101699.34;4972509;28;20034;-85
2022/02/07 13:05:01;;;;;;;15.07;3.25;;;;;;;14.41;57.21;101703.88;4973051;28;20031;-85
2022/02/07 13:07:30;;;;;;;17.10;3.47;;;;;;;14.28;57.41;101703.81;4972336;28;20483;-86
2022/02/07 13:09:56;;;;;;;22.77;3.47;;;;;;;14.15;57.75;101694.94;4972868;28;20031;-85
2022/02/07 13:12:38;;;;;;;15.52;4.20;;;;;;;14.23;57.55;101700.59;4972182;28;20405;-85
2022/02/07 13:15:08;;;;;;;;;;;;;;;14.51;57.07;101688.28;4973689;28;20038;-85
2022/02/07 13:17:37;;;;;;;11.88;3.50;;;;;;;14.50;57.02;101691.88;4973423;28;19918;-85
2022/02/07 13:20:06;;;;;;;16.88;3.03;;;;;;;14.42;57.63;101684.44;4972007;28;20328;-85
2022/02/07 13:22:31;;;;;;;17.33;3.58;;;;;;;14.26;58.17;101686.38;4972084;28;20560;-85
2022/02/07 13:24:57;;;;;;;19.10;3.58;;;;;;;14.15;58.94;101686.19;4972557;28;20062;-85
2022/02/07 13:27:24;;;;;;;19.92;2.92;;;;;;;14.34;58.86;101691.16;4972950;28;20110;-85
2022/02/07 13:29:54;;;;;;;18.50;3.00;;;;;;;14.47;58.56;101681.50;4971315;28;20041;-85
2022/02/07 13:32:26;;;;;;;18.00;2.92;;;;;;;14.65;58.12;101680.34;4971737;28;20038;-85
2022/02/07 13:35:04;;;;;;;14.98;2.50;;;;;;;14.52;58.74;101682.06;4964589;28;20033;-85
2022/02/07 13:37:32;;;;;;;14.55;2.60;;;;;;;14.07;60.40;101689.31;4954005;28;20035;-85
2022/02/07 13:40:17;;;;;;;12.88;2.53;;;;;;;14.33;59.86;101694.75;4967657;28;20054;-85
2022/02/07 13:42:49;;;;;;;10.88;2.75;;;;;;;14.45;59.44;101701.88;4973246;28;20531;-85
2022/02/07 13:45:18;;;;;;;13.27;2.10;;;;;;;14.22;60.19;101701.56;4973176;28;20022;-85
2022/02/07 13:47:51;;;;;;;15.93;3.30;;;;;;;14.39;60.26;101697.84;4968953;28;20037;-85
2022/02/07 13:50:22;;;;;;;15.93;2.72;;;;;;;14.53;59.56;101694.31;4954624;28;20055;-85
2022/02/07 13:52:50;;;;;;;16.75;2.55;;;;;;;14.31;60.12;101686.91;4957433;28;20027;-85
2022/02/07 13:55:30;;;;;;;14.82;2.60;;;;;;;14.39;60.68;101683.78;4953540;28;20381;-85
2022/02/07 13:58:06;;;;;;;13.85;2.70;;;;;;;14.46;60.36;101675.38;4954695;28;20035;-85
2022/02/07 14:00:38;;;;;;;18.83;2.75;;;;;;;14.38;61.21;101671.53;4961451;28;20050;-85
2022/02/07 14:03:07;;;;;;;16.13;2.65;;;;;;;13.95;62.80;101668.94;4973121;28;20045;-85
2022/02/07 14:05:38;;;;;;;16.70;3.08;;;;;;;14.10;62.15;101673.28;4971322;28;20502;-86
2022/02/07 14:08:05;;;;;;;11.82;2.67;;;;;;;14.01;62.31;101663.28;4965830;28;20027;-85
2022/02/07 14:10:38;;;;;;;18.60;3.10;;;;;;;13.87;62.95;101661.50;4967600;28;20090;-85
2022/02/07 14:13:09;;;;;;;14.77;3.05;;;;;;;14.22;62.17;101656.66;4957245;28;20062;-85
2022/02/07 14:15:36;;;;;;;22.50;3.55;;;;;;;14.17;62.32;101642.88;4960792;28;20027;-85